Time;durP1;ratioP1;P1;durP2;ratioP2;P2;SDS_P1;SDS_P2;PMS_P1;PMS_P2;Temp;Humidity;BMP_temperature;BMP_pressure;BME280_temperature;BME280_humidity;BME280_pressure;Samples;Min_cycle;Max_cycle;Signal;HPM_P1;HPM_P2
2020/12/18 00:02:22;;;;;;;3.90;3.60;;;;;;;6.44;77.73;101185.22;5109910;28;20215;-79
2020/12/18 00:04:48;;;;;;;3.20;3.00;;;;;;;6.41;77.80;101192.97;5098127;28;20205;-78
2020/12/18 00:07:14;;;;;;;3.37;2.90;;;;;;;6.40;78.12;101183.44;5115018;28;20204;-80
2020/12/18 00:09:40;;;;;;;4.73;4.40;;;;;;;6.38;78.16;101190.31;5102975;28;20764;-78
2020/12/18 00:12:07;;;;;;;3.97;3.30;;;;;;;6.35;77.65;101188.56;5114214;28;21846;-79
2020/12/18 00:14:32;;;;;;;3.43;3.13;;;;;;;6.35;77.44;101175.59;5103142;28;20226;-79
2020/12/18 00:16:58;;;;;;;5.33;3.43;;;;;;;6.32;77.98;101178.19;5104298;28;20250;-78
2020/12/18 00:19:24;;;;;;;3.73;3.43;;;;;;;6.27;78.42;101177.25;5102992;28;20262;-79
2020/12/18 00:21:55;;;;;;;4.37;3.60;;;;;;;6.29;78.12;101180.75;5107229;28;20200;-78
2020/12/18 00:24:20;;;;;;;4.00;3.47;;;;;;;6.32;78.56;101182.47;5100463;28;20692;-79
2020/12/18 00:26:46;;;;;;;3.80;3.40;;;;;;;6.33;77.83;101179.06;5109352;28;20201;-79
2020/12/18 00:29:13;;;;;;;3.93;3.63;;;;;;;6.33;77.78;101174.72;5103201;28;20351;-79
2020/12/18 00:31:39;;;;;;;3.50;3.20;;;;;;;6.31;78.14;101180.75;5109118;27;20203;-79
2020/12/18 00:34:05;;;;;;;3.13;2.93;;;;;;;6.27;78.42;101174.66;5111229;27;20247;-79
2020/12/18 00:36:31;;;;;;;4.03;3.37;;;;;;;6.25;78.14;101167.75;5114487;27;20218;-79
2020/12/18 00:38:57;;;;;;;3.53;3.23;;;;;;;6.21;78.02;101176.34;5111532;27;20195;-79
2020/12/18 00:41:23;;;;;;;3.53;3.07;;;;;;;6.25;78.30;101172.91;5115401;27;20231;-79
2020/12/18 00:43:49;;;;;;;3.87;3.47;;;;;;;6.23;78.15;101178.09;5111455;27;20231;-80
2020/12/18 00:46:15;;;;;;;3.70;3.40;;;;;;;6.23;78.58;101177.22;5112225;27;20207;-79
2020/12/18 00:48:41;;;;;;;4.27;3.87;;;;;;;6.24;78.64;101179.81;5113584;27;20221;-78
2020/12/18 00:51:07;;;;;;;4.00;3.60;;;;;;;6.27;79.04;101179.84;5114714;27;20246;-79
2020/12/18 00:53:34;;;;;;;3.47;3.17;;;;;;;6.25;78.49;101186.75;5112552;27;20759;-79
2020/12/18 00:56:00;;;;;;;3.47;3.17;;;;;;;6.30;79.07;101185.09;5124384;27;20262;-79
2020/12/18 00:58:26;;;;;;;4.73;3.60;;;;;;;6.36;78.78;101192.03;5121580;27;20203;-78
2020/12/18 01:00:52;;;;;;;3.93;3.63;;;;;;;6.36;78.17;101192.03;5124008;27;20296;-79
2020/12/18 01:03:18;;;;;;;4.50;3.50;;;;;;;6.30;78.98;101190.28;5130150;27;20224;-79
2020/12/18 01:05:44;;;;;;;7.03;3.77;;;;;;;6.38;78.57;101199.84;5124347;27;20226;-78
2020/12/18 01:08:10;;;;;;;3.60;3.30;;;;;;;6.44;78.04;101194.72;5129835;27;20200;-78
2020/12/18 01:10:36;;;;;;;4.30;3.90;;;;;;;6.49;78.44;101198.22;5111954;27;20456;-80
2020/12/18 01:13:03;;;;;;;3.70;3.17;;;;;;;6.52;78.75;101204.31;5116717;28;20218;-79
2020/12/18 01:15:29;;;;;;;4.33;3.93;;;;;;;6.53;77.63;101198.25;5110935;27;20577;-79
2020/12/18 01:17:55;;;;;;;4.17;3.50;;;;;;;6.51;78.42;101199.13;5111985;27;20231;-79
2020/12/18 01:20:21;;;;;;;4.30;3.90;;;;;;;6.45;78.46;101199.06;5100799;27;20316;-80
2020/12/18 01:22:47;;;;;;;4.10;3.70;;;;;;;6.46;77.81;101201.66;5110306;27;20220;-78
2020/12/18 01:25:13;;;;;;;3.97;3.57;;;;;;;6.39;78.99;101196.41;5111798;27;20194;-79
2020/12/18 01:27:39;;;;;;;4.37;3.50;;;;;;;6.40;78.40;101205.91;5121360;27;20284;-79
2020/12/18 01:30:05;;;;;;;4.17;3.40;;;;;;;6.40;78.40;101198.97;5130031;27;20745;-79
2020/12/18 01:32:31;;;;;;;3.80;3.50;;;;;;;6.40;78.00;101203.31;5129662;27;20696;-79
2020/12/18 01:34:57;;;;;;;4.40;3.67;;;;;;;6.29;77.96;101204.06;5129456;27;20218;-79
2020/12/18 01:37:23;;;;;;;3.47;3.27;;;;;;;6.23;78.33;101211.78;5122876;27;20199;-78
2020/12/18 01:39:49;;;;;;;3.47;3.13;;;;;;;6.22;78.40;101214.34;5109932;28;20228;-79
2020/12/18 01:42:15;;;;;;;4.80;3.13;;;;;;;6.16;78.30;101215.16;5124372;27;20241;-79
2020/12/18 01:44:41;;;;;;;3.60;3.30;;;;;;;6.11;78.03;101219.44;5105635;27;20243;-79
2020/12/18 01:47:19;;;;;;;3.87;2.90;;;;;;;6.13;78.24;101222.91;5125849;27;20248;-78
2020/12/18 01:49:45;;;;;;;3.37;3.07;;;;;;;6.09;78.30;101223.72;5116106;28;20219;-78
2020/12/18 01:52:11;;;;;;;3.37;3.07;;;;;;;6.04;78.37;101228.81;5126741;27;20195;-78
2020/12/18 01:54:38;;;;;;;2.97;2.77;;;;;;;6.03;78.43;101232.28;5108046;27;20260;-79
2020/12/18 01:57:04;;;;;;;3.30;2.93;;;;;;;5.90;78.33;101223.44;5126675;27;20201;-79
2020/12/18 01:59:30;;;;;;;3.37;3.17;;;;;;;5.92;78.67;101220.88;5115717;27;20712;-79
2020/12/18 02:01:56;;;;;;;3.57;3.17;;;;;;;5.94;78.30;101229.53;5127799;27;20741;-79
2020/12/18 02:04:22;;;;;;;3.70;3.30;;;;;;;5.79;79.21;101225.03;5126019;22;20241;-81
2020/12/18 02:06:54;;;;;;;4.93;2.97;;;;;;;5.82;79.54;101221.59;5039287;28;20289;-79
2020/12/18 02:09:20;;;;;;;3.43;3.10;;;;;;;5.81;79.42;101220.75;5040814;28;20215;-80
2020/12/18 02:11:48;;;;;;;5.37;3.40;;;;;;;5.89;79.15;101226.91;5056600;28;20197;-80
2020/12/18 02:14:14;;;;;;;2.93;2.73;;;;;;;5.97;78.77;101214.94;5033885;28;20215;-79
2020/12/18 02:16:40;;;;;;;4.33;3.03;;;;;;;5.94;78.94;101217.44;5054525;28;20677;-80
2020/12/18 02:19:09;;;;;;;4.23;3.03;;;;;;;5.94;78.97;101214.84;5046040;28;20609;-80
2020/12/18 02:21:35;;;;;;;3.20;2.90;;;;;;;5.85;78.84;101206.97;5052442;28;20738;-82
2020/12/18 02:24:01;;;;;;;2.83;2.60;;;;;;;5.81;78.99;101209.50;5056286;28;20225;-81
2020/12/18 02:26:28;;;;;;;4.07;3.00;;;;;;;5.86;78.96;101207.84;5053164;28;20745;-81
2020/12/18 02:28:54;;;;;;;3.87;3.17;;;;;;;5.80;78.92;101206.03;5041168;28;20202;-81
2020/12/18 02:31:20;;;;;;;3.50;2.60;;;;;;;5.69;78.76;101216.28;5050887;28;20300;-81
2020/12/18 02:33:47;;;;;;;2.97;2.70;;;;;;;5.70;78.90;101227.50;5050403;28;20199;-81
2020/12/18 02:36:14;;;;;;;2.60;2.37;;;;;;;5.52;79.06;101220.34;5047739;28;20201;-81
2020/12/18 02:38:40;;;;;;;6.97;2.83;;;;;;;5.49;79.25;101217.69;5043965;28;20270;-80
2020/12/18 02:41:06;;;;;;;3.93;2.90;;;;;;;5.34;79.54;101219.22;5046479;28;20203;-82
2020/12/18 02:43:32;;;;;;;6.10;3.50;;;;;;;5.28;80.08;101215.69;5051675;28;20221;-79
2020/12/18 02:45:58;;;;;;;3.70;2.43;;;;;;;5.31;80.17;101207.94;5041540;28;20222;-82
2020/12/18 02:48:26;;;;;;;3.07;2.70;;;;;;;5.32;80.03;101207.09;5049739;28;20268;-81
2020/12/18 02:50:52;;;;;;;3.97;2.40;;;;;;;5.27;80.47;101211.34;5042208;28;20198;-82
2020/12/18 02:53:19;;;;;;;5.17;3.53;;;;;;;5.22;80.12;101210.41;5056921;28;20209;-79
2020/12/18 02:55:47;;;;;;;5.77;2.90;;;;;;;5.18;80.13;101212.94;5049447;28;20225;-81
2020/12/18 02:58:15;;;;;;;3.30;3.00;;;;;;;5.20;80.14;101219.88;5044935;28;20212;-80
2020/12/18 03:00:42;;;;;;;4.47;2.90;;;;;;;5.21;80.00;101211.25;5044959;28;20205;-81
2020/12/18 03:03:08;;;;;;;3.60;3.20;;;;;;;5.16;80.16;101216.34;5057576;28;20222;-81
2020/12/18 03:05:34;;;;;;;3.47;2.60;;;;;;;5.17;80.13;101218.06;5046479;28;20233;-81
2020/12/18 03:08:00;;;;;;;4.13;2.83;;;;;;;5.14;80.45;101220.63;5051976;28;20599;-80
2020/12/18 03:10:26;;;;;;;2.50;2.33;;;;;;;5.12;79.70;101215.44;5053790;28;20209;-81
2020/12/18 03:12:52;;;;;;;2.93;2.67;;;;;;;5.15;80.01;101218.06;5050567;28;20197;-81
2020/12/18 03:15:18;;;;;;;3.83;2.53;;;;;;;5.20;79.70;101202.59;5051732;28;20640;-81
2020/12/18 03:17:45;;;;;;;3.00;2.70;;;;;;;5.21;79.55;101201.75;5051757;28;20210;-81
2020/12/18 03:20:11;;;;;;;2.77;2.47;;;;;;;5.12;79.62;101218.00;5044728;28;20208;-80
2020/12/18 03:22:37;;;;;;;2.80;2.30;;;;;;;5.10;79.98;101216.25;5042363;28;20622;-81
2020/12/18 03:25:04;;;;;;;3.87;3.00;;;;;;;5.08;80.06;101212.78;5036936;28;20250;-81
2020/12/18 03:27:30;;;;;;;3.50;2.20;;;;;;;5.07;79.63;101221.38;5044743;28;20201;-81
2020/12/18 03:29:56;;;;;;;4.00;2.90;;;;;;;4.97;80.08;101217.75;5042261;28;20235;-81
2020/12/18 03:32:22;;;;;;;2.93;2.17;;;;;;;5.04;79.83;101222.19;5048145;28;20196;-80
2020/12/18 03:34:48;;;;;;;3.53;2.77;;;;;;;4.96;80.36;101219.47;5047943;28;20226;-78
2020/12/18 03:37:14;;;;;;;2.50;2.10;;;;;;;4.88;80.07;101217.63;5052919;28;20713;-82
2020/12/18 03:39:40;;;;;;;2.30;2.20;;;;;;;4.85;80.33;101220.16;5039005;28;20207;-81
2020/12/18 03:42:06;;;;;;;2.90;2.60;;;;;;;4.89;80.68;101217.63;5050381;28;20233;-81
2020/12/18 03:44:32;;;;;;;3.27;2.60;;;;;;;4.93;80.66;101226.31;5047971;28;20284;-81
2020/12/18 03:46:57;;;;;;;3.27;2.50;;;;;;;4.90;80.96;101224.56;5048290;28;20239;-80
2020/12/18 03:49:23;;;;;;;5.10;2.37;;;;;;;4.86;80.57;101220.19;5039664;28;20202;-81
2020/12/18 03:51:50;;;;;;;2.63;2.43;;;;;;;4.86;81.14;101225.34;5050301;28;20547;-81
2020/12/18 03:54:16;;;;;;;3.03;2.20;;;;;;;4.85;80.95;101220.16;5041108;28;20230;-81
2020/12/18 03:56:42;;;;;;;3.33;2.33;;;;;;;4.85;81.00;101222.72;5036605;28;20826;-81
2020/12/18 03:59:08;;;;;;;2.57;2.37;;;;;;;4.81;81.23;101221.81;5042229;28;20229;-81
2020/12/18 04:01:34;;;;;;;4.50;2.83;;;;;;;4.76;81.56;101231.22;5044839;28;20202;-80
2020/12/18 04:03:59;;;;;;;5.13;2.43;;;;;;;4.76;81.72;101224.31;5025597;28;522800;-80
2020/12/18 04:06:25;;;;;;;3.23;2.43;;;;;;;4.75;82.38;101232.03;5047292;28;20209;-80
2020/12/18 04:08:52;;;;;;;5.13;3.33;;;;;;;4.90;82.73;101231.47;5052875;28;20205;-78
2020/12/18 04:11:18;;;;;;;4.83;3.07;;;;;;;4.98;82.72;101225.56;5055221;28;20202;-81
2020/12/18 04:13:44;;;;;;;2.33;2.13;;;;;;;4.95;82.21;101229.78;5051332;28;20260;-81
2020/12/18 04:16:09;;;;;;;3.30;2.30;;;;;;;5.05;82.26;101231.69;5052447;28;20312;-79
2020/12/18 04:18:35;;;;;;;2.53;2.20;;;;;;;5.09;82.26;101233.47;5060792;28;20201;-79
2020/12/18 04:21:01;;;;;;;3.00;2.70;;;;;;;5.14;81.70;101224.09;5051264;28;20316;-82
2020/12/18 04:23:27;;;;;;;3.57;2.90;;;;;;;5.13;81.15;101229.22;5054354;28;20301;-81
2020/12/18 04:25:54;;;;;;;3.30;2.50;;;;;;;5.11;81.49;101228.34;5048201;28;20272;-81
2020/12/18 04:28:20;;;;;;;4.27;2.40;;;;;;;5.14;81.66;101239.63;5061021;28;20232;-81
2020/12/18 04:30:46;;;;;;;3.63;2.53;;;;;;;5.18;81.76;101231.03;5052777;28;20201;-79
2020/12/18 04:33:11;;;;;;;4.00;2.63;;;;;;;5.25;82.48;101228.56;5059386;28;20573;-81
2020/12/18 04:35:37;;;;;;;3.07;2.30;;;;;;;5.32;82.42;101227.81;5050213;28;20232;-81
2020/12/18 04:38:03;;;;;;;2.60;2.40;;;;;;;5.22;82.26;101241.47;5044985;28;20238;-81
2020/12/18 04:40:33;;;;;;;3.00;2.80;;;;;;;5.30;82.47;101239.88;5047789;28;20222;-81
2020/12/18 04:43:00;;;;;;;3.20;2.90;;;;;;;5.33;82.07;101227.84;5058472;28;20266;-80
2020/12/18 04:45:26;;;;;;;3.90;2.60;;;;;;;5.29;81.87;101233.81;5048996;28;20222;-81
2020/12/18 04:47:57;;;;;;;5.43;3.43;;;;;;;5.37;81.40;101237.41;5056039;28;20569;-81
2020/12/18 04:50:24;;;;;;;4.50;3.87;;;;;;;5.45;81.39;101229.75;5037410;28;20564;-82
2020/12/18 04:52:56;;;;;;;5.70;3.57;;;;;;;5.48;81.29;101232.38;5053161;28;20418;-81
2020/12/18 04:55:26;;;;;;;5.03;4.20;;;;;;;5.51;81.03;101231.53;5044955;28;20231;-81
2020/12/18 04:57:53;;;;;;;3.80;3.50;;;;;;;5.57;81.25;101213.53;5059722;28;20202;-81
2020/12/18 05:00:20;;;;;;;3.20;2.90;;;;;;;5.58;80.72;101216.09;5050188;28;20252;-80
2020/12/18 05:02:47;;;;;;;4.07;3.07;;;;;;;5.62;81.15;101214.44;5056236;28;20222;-82
2020/12/18 05:05:12;;;;;;;3.43;3.13;;;;;;;5.61;81.06;101220.47;5050578;28;20236;-81
2020/12/18 05:07:38;;;;;;;3.87;3.40;;;;;;;5.58;81.14;101218.69;5045557;28;20198;-82
2020/12/18 05:10:07;;;;;;;3.50;2.97;;;;;;;5.59;81.55;101224.78;5053550;28;20211;-80
2020/12/18 05:12:34;;;;;;;4.87;3.53;;;;;;;5.66;81.36;101216.22;5048257;28;20195;-81
2020/12/18 05:15:00;;;;;;;4.10;3.70;;;;;;;5.69;82.18;101215.38;5051608;28;20233;-81
2020/12/18 05:17:27;;;;;;;6.43;3.87;;;;;;;5.70;81.97;101219.72;5058315;28;20205;-80
2020/12/18 05:19:53;;;;;;;4.80;4.40;;;;;;;5.76;81.78;101223.25;5049635;28;20663;-81
2020/12/18 05:22:23;;;;;;;5.57;4.70;;;;;;;5.76;81.75;101225.84;5050186;28;20209;-82
2020/12/18 05:24:50;;;;;;;4.97;4.47;;;;;;;5.83;82.15;101219.03;5048644;28;20221;-81
2020/12/18 05:27:16;;;;;;;4.43;4.03;;;;;;;5.85;81.85;101216.47;5059290;28;20197;-80
2020/12/18 05:29:43;;;;;;;4.53;4.13;;;;;;;5.86;80.91;101223.38;5055466;28;20222;-81
2020/12/18 05:32:13;;;;;;;4.00;3.63;;;;;;;5.89;81.95;101216.53;5051040;28;20255;-81
2020/12/18 05:34:41;;;;;;;4.63;4.23;;;;;;;5.94;81.41;101224.34;5046355;28;20233;-80
2020/12/18 05:37:07;;;;;;;4.77;3.43;;;;;;;5.96;81.69;101220.09;5047881;28;20217;-80
2020/12/18 05:39:34;;;;;;;4.47;3.43;;;;;;;5.97;81.86;101220.13;5040864;28;20207;-80
2020/12/18 05:42:01;;;;;;;4.10;3.80;;;;;;;6.01;81.79;101227.94;5058393;28;20197;-79
2020/12/18 05:44:28;;;;;;;5.33;3.40;;;;;;;5.97;81.83;101224.44;5049957;28;20226;-81
2020/12/18 05:47:02;;;;;;;4.43;3.93;;;;;;;5.91;81.63;101224.34;5050554;28;20206;-81
2020/12/18 05:49:30;;;;;;;3.40;3.10;;;;;;;5.88;82.00;101229.47;5050268;28;20207;-80
2020/12/18 05:51:57;;;;;;;3.93;3.63;;;;;;;5.90;81.54;101228.63;5052151;28;20241;-81
2020/12/18 05:54:30;;;;;;;4.23;3.87;;;;;;;5.92;81.29;101231.25;5049899;28;20270;-81
2020/12/18 05:56:56;;;;;;;3.70;3.43;;;;;;;5.89;80.63;101232.06;5054949;28;20202;-81
2020/12/18 05:59:22;;;;;;;3.97;3.67;;;;;;;5.88;81.00;101225.13;5039112;28;20199;-80
2020/12/18 06:01:49;;;;;;;6.00;3.80;;;;;;;5.84;81.04;101223.34;5057230;28;20873;-79
2020/12/18 06:04:17;;;;;;;4.60;3.10;;;;;;;5.84;80.82;101225.94;5054947;28;20257;-80
2020/12/18 06:06:45;;;;;;;6.07;3.20;;;;;;;5.79;80.69;101227.63;5044550;28;20205;-80
2020/12/18 06:09:13;;;;;;;5.03;3.27;;;;;;;5.77;81.01;101240.56;5049118;28;20206;-80
2020/12/18 06:11:39;;;;;;;4.13;3.73;;;;;;;5.76;81.43;101243.13;5048148;28;20206;-80
2020/12/18 06:14:07;;;;;;;5.10;3.87;;;;;;;5.75;81.53;101242.25;5056202;28;20198;-81
2020/12/18 06:16:37;;;;;;;3.63;3.33;;;;;;;5.72;81.54;101247.38;5043249;28;20658;-80
2020/12/18 06:19:05;;;;;;;4.13;3.07;;;;;;;5.81;81.15;101245.75;5053632;28;20198;-80
2020/12/18 06:21:31;;;;;;;3.60;3.10;;;;;;;5.80;81.31;101255.25;5042208;28;20205;-81
2020/12/18 06:23:57;;;;;;;4.27;3.40;;;;;;;5.81;81.19;101248.34;5048519;28;20240;-80
2020/12/18 06:26:25;;;;;;;4.50;2.97;;;;;;;5.78;81.23;101244.00;5051995;28;20206;-80
2020/12/18 06:28:52;;;;;;;2.90;2.70;;;;;;;5.77;81.38;101239.69;5038234;28;20210;-81
2020/12/18 06:31:23;;;;;;;3.20;3.00;;;;;;;5.77;80.89;101237.09;5042570;28;20201;-82
2020/12/18 06:33:50;;;;;;;4.13;3.27;;;;;;;5.70;80.66;101241.31;5038847;28;20265;-79
2020/12/18 06:36:16;;;;;;;6.17;3.53;;;;;;;5.61;80.75;101242.91;5036080;28;20202;-81
2020/12/18 06:38:42;;;;;;;3.33;3.03;;;;;;;5.64;80.90;101233.47;5036415;28;20202;-82
2020/12/18 06:41:21;;;;;;;3.77;3.17;;;;;;;5.58;80.90;101233.38;5039467;28;20768;-81
2020/12/18 06:43:48;;;;;;;3.40;3.07;;;;;;;5.53;81.00;101240.19;5037087;28;20639;-82
2020/12/18 06:46:18;;;;;;;2.77;2.47;;;;;;;5.52;81.48;101235.88;5038522;28;20251;-81
2020/12/18 06:48:49;;;;;;;3.27;2.97;;;;;;;5.50;80.91;101238.44;5036742;28;20198;-82
2020/12/18 06:51:26;;;;;;;3.17;2.87;;;;;;;5.51;81.08;101236.72;5040254;28;20208;-80
2020/12/18 06:54:07;;;;;;;3.57;2.60;;;;;;;5.37;81.50;101228.72;5033867;28;20196;-81
2020/12/18 06:56:33;;;;;;;2.97;2.77;;;;;;;5.37;81.41;101234.81;5037446;28;20194;-80
2020/12/18 07:01:52;;;;;;;4.17;3.53;;;;;;;5.25;81.76;101221.69;5131967;27;20530;-80
2020/12/18 07:04:19;;;;;;;3.57;3.13;;;;;;;5.28;82.00;101224.31;5107288;28;20219;-80
2020/12/18 07:06:45;;;;;;;4.70;3.20;;;;;;;5.28;81.64;101221.72;5105763;28;20199;-79
2020/12/18 07:09:11;;;;;;;3.33;3.03;;;;;;;5.26;81.82;101217.38;5106724;28;20652;-79
2020/12/18 07:11:38;;;;;;;3.40;3.20;;;;;;;5.23;81.22;101210.41;5100387;28;20254;-79
2020/12/18 07:14:04;;;;;;;4.27;3.13;;;;;;;5.26;81.45;101212.19;5103711;28;20310;-78
2020/12/18 07:16:30;;;;;;;3.47;2.63;;;;;;;5.27;81.82;101217.41;5109363;28;20195;-80
2020/12/18 07:18:58;;;;;;;4.87;3.30;;;;;;;5.27;81.57;101213.91;5101676;28;20233;-79
2020/12/18 07:21:24;;;;;;;4.30;3.90;;;;;;;5.28;81.85;101215.69;5102792;28;20220;-80
2020/12/18 07:23:52;;;;;;;4.70;4.13;;;;;;;5.27;81.62;101221.69;5101573;28;20277;-79
2020/12/18 07:26:27;;;;;;;4.90;4.40;;;;;;;5.20;81.70;101223.31;5103893;28;20233;-78
2020/12/18 07:28:52;;;;;;;7.30;5.70;;;;;;;5.18;82.69;101219.84;5101783;28;20204;-79
2020/12/18 07:31:20;;;;;;;6.97;6.27;;;;;;;5.21;82.62;101227.63;5107046;28;20828;-80
2020/12/18 07:33:48;;;;;;;6.03;5.40;;;;;;;5.30;82.33;101217.44;5099519;28;20210;-80
2020/12/18 07:36:15;;;;;;;6.17;5.67;;;;;;;5.33;82.19;101216.59;5106673;28;20227;-80
2020/12/18 07:38:41;;;;;;;6.73;6.17;;;;;;;5.35;82.40;101207.13;5105113;28;20604;-81
2020/12/18 07:41:08;;;;;;;6.73;6.13;;;;;;;5.21;82.41;101204.34;5105116;28;20231;-79
2020/12/18 07:43:36;;;;;;;6.87;6.17;;;;;;;5.24;82.56;101206.13;5100524;28;20200;-79
2020/12/18 07:46:04;;;;;;;7.77;5.60;;;;;;;5.27;82.59;101194.09;5104341;28;20228;-79
2020/12/18 07:48:31;;;;;;;6.13;5.53;;;;;;;5.34;82.19;101203.69;5101620;28;20191;-80
2020/12/18 07:50:59;;;;;;;5.30;4.80;;;;;;;5.33;82.55;101207.13;5103072;28;20207;-79
2020/12/18 07:53:27;;;;;;;5.70;5.20;;;;;;;5.35;82.64;101213.19;5099580;28;20200;-80
2020/12/18 07:56:04;;;;;;;5.80;5.40;;;;;;;5.41;82.66;101206.34;5103755;28;20223;-79
2020/12/18 07:58:31;;;;;;;5.43;4.93;;;;;;;5.43;82.81;101213.31;5097060;27;20246;-78
2020/12/18 08:01:05;;;;;;;6.67;6.07;;;;;;;5.46;82.14;101207.31;5098456;28;20274;-79
2020/12/18 08:03:32;;;;;;;6.73;5.57;;;;;;;5.46;82.66;101222.84;5101163;28;20201;-80
2020/12/18 08:06:00;;;;;;;5.07;4.60;;;;;;;5.50;82.12;101212.53;5101214;28;20217;-82
2020/12/18 08:08:28;;;;;;;6.83;5.53;;;;;;;5.58;82.66;101208.34;5106807;28;20224;-81
2020/12/18 08:10:55;;;;;;;5.93;5.17;;;;;;;5.55;82.13;101216.06;5104284;28;20204;-80
2020/12/18 08:13:26;;;;;;;5.77;5.27;;;;;;;5.62;81.94;101221.34;5086668;28;20718;-78
2020/12/18 08:15:51;;;;;;;5.90;5.30;;;;;;;5.65;82.30;101216.19;5092355;22;20234;-79
2020/12/18 08:18:17;;;;;;;6.07;5.30;;;;;;;5.68;81.92;101216.25;5044132;28;20269;-80
2020/12/18 08:20:44;;;;;;;5.07;4.63;;;;;;;5.68;82.18;101218.84;5044693;28;20230;-81
2020/12/18 08:23:12;;;;;;;8.20;5.33;;;;;;;5.70;81.89;101228.34;5050440;28;20210;-81
2020/12/18 08:25:39;;;;;;;6.27;4.77;;;;;;;5.70;81.89;101217.13;5052332;28;20230;-80
2020/12/18 08:28:06;;;;;;;5.93;5.30;;;;;;;5.75;82.00;101221.53;5054969;28;20209;-80
2020/12/18 08:30:33;;;;;;;6.50;5.37;;;;;;;5.78;81.21;101215.50;5052218;28;20202;-80
2020/12/18 08:33:00;;;;;;;5.83;5.33;;;;;;;5.70;81.63;101205.03;5059190;28;20197;-81
2020/12/18 08:35:26;;;;;;;5.07;4.67;;;;;;;5.78;81.85;101210.34;5056894;28;20240;-80
2020/12/18 08:37:52;;;;;;;6.33;5.70;;;;;;;5.78;81.45;101218.97;5058251;28;20206;-79
2020/12/18 08:40:20;;;;;;;9.63;5.40;;;;;;;5.83;81.76;101224.22;5065553;28;20264;-80
2020/12/18 08:42:59;;;;;;;5.97;5.37;;;;;;;5.93;81.34;101220.03;5058894;28;20194;-79
2020/12/18 08:45:25;;;;;;;6.73;6.13;;;;;;;5.93;81.58;101220.03;5059525;28;20292;-79
2020/12/18 08:47:51;;;;;;;5.93;5.43;;;;;;;5.96;80.60;101220.94;5055949;28;20194;-80
2020/12/18 08:50:17;;;;;;;6.43;5.63;;;;;;;5.88;80.82;101227.72;5056048;28;20197;-80
2020/12/18 08:52:45;;;;;;;6.50;5.87;;;;;;;5.93;80.97;101220.91;5055988;28;20592;-79
2020/12/18 08:55:11;;;;;;;7.87;5.60;;;;;;;6.01;81.17;101228.81;5055877;28;20312;-80
2020/12/18 08:57:37;;;;;;;6.83;6.20;;;;;;;5.99;81.29;101227.06;5059780;28;20198;-80
2020/12/18 09:00:12;;;;;;;6.67;6.00;;;;;;;6.01;81.68;101221.03;5059635;28;20222;-81
2020/12/18 09:02:40;;;;;;;6.70;6.03;;;;;;;6.06;80.58;101223.66;5054203;28;20266;-80
2020/12/18 09:05:16;;;;;;;6.27;5.73;;;;;;;6.03;80.17;101221.06;5050921;28;20206;-80
2020/12/18 09:07:46;;;;;;;8.00;6.67;;;;;;;5.90;81.25;101226.03;5050118;28;20205;-79
2020/12/18 09:10:12;;;;;;;7.17;5.93;;;;;;;5.91;81.58;101225.19;5056862;28;20222;-80
2020/12/18 09:12:39;;;;;;;7.30;6.70;;;;;;;5.88;81.17;101225.13;5051832;28;20221;-81
2020/12/18 09:15:20;;;;;;;8.30;7.23;;;;;;;5.97;80.81;101224.44;5045852;28;21571;-80
2020/12/18 09:17:46;;;;;;;7.43;6.73;;;;;;;6.00;80.53;101232.22;5054828;28;20564;-79
2020/12/18 09:20:24;;;;;;;7.80;7.10;;;;;;;5.88;81.84;101232.06;5043463;28;20304;-79
2020/12/18 09:22:58;;;;;;;7.20;6.70;;;;;;;5.91;81.10;101222.59;5050997;28;20268;-78
2020/12/18 09:25:24;;;;;;;6.87;6.33;;;;;;;5.93;81.01;101220.03;5044017;28;20197;-77
2020/12/18 09:27:58;;;;;;;7.23;6.63;;;;;;;5.89;81.95;101226.91;5045489;28;20201;-80
2020/12/18 09:30:26;;;;;;;8.93;7.27;;;;;;;5.90;81.95;101226.03;5049977;28;20190;-79
2020/12/18 09:33:31;;;;;;;7.90;7.20;;;;;;;5.95;81.83;101226.13;5044592;28;20190;-78
2020/12/18 09:35:59;;;;;;;7.33;6.63;;;;;;;6.07;82.51;101228.00;5040015;28;20692;-77
2020/12/18 09:38:26;;;;;;;7.80;7.10;;;;;;;6.30;83.86;101229.16;5047708;28;20617;-78
2020/12/18 09:40:53;;;;;;;7.20;6.00;;;;;;;6.33;81.50;101226.59;5058420;28;20221;-77
2020/12/18 09:43:19;;;;;;;6.40;5.80;;;;;;;6.28;80.88;101236.06;5047333;28;20620;-77
2020/12/18 09:45:47;;;;;;;6.53;5.97;;;;;;;6.23;81.35;101229.06;5043303;28;20221;-76
2020/12/18 09:48:13;;;;;;;5.87;5.27;;;;;;;6.51;82.89;101225.91;5044356;28;20299;-77
2020/12/18 09:50:39;;;;;;;7.07;6.20;;;;;;;6.45;80.72;101218.06;5042089;28;20213;-77
2020/12/18 09:53:05;;;;;;;6.63;5.60;;;;;;;6.60;81.01;101224.25;5050107;28;20633;-78
2020/12/18 09:55:31;;;;;;;7.80;7.10;;;;;;;6.73;82.55;101226.13;5045477;28;20296;-77
2020/12/18 09:57:57;;;;;;;6.80;6.20;;;;;;;6.62;79.93;101217.38;5047443;28;20232;-78
2020/12/18 10:00:23;;;;;;;7.67;5.70;;;;;;;6.54;79.84;101217.28;5043412;28;20214;-78
2020/12/18 10:02:49;;;;;;;5.70;5.10;;;;;;;6.65;79.33;101220.88;5048382;28;20201;-78
2020/12/18 10:05:15;;;;;;;7.37;5.80;;;;;;;6.51;79.51;101220.72;5043316;28;20202;-77
2020/12/18 10:07:41;;;;;;;6.07;5.40;;;;;;;6.65;80.59;101213.06;5052533;28;20736;-77
2020/12/18 10:10:07;;;;;;;5.37;4.90;;;;;;;6.80;79.70;101208.88;5053471;28;20876;-77
2020/12/18 10:12:33;;;;;;;5.40;4.90;;;;;;;6.82;80.48;101214.94;5050021;28;20799;-77
2020/12/18 10:14:59;;;;;;;4.43;4.03;;;;;;;6.86;78.30;101208.97;5052163;28;20197;-76
2020/12/18 10:17:25;;;;;;;4.17;3.87;;;;;;;6.81;77.76;101202.84;5048967;28;20817;-76
2020/12/18 10:19:52;;;;;;;5.43;4.80;;;;;;;6.84;78.52;101203.75;5047095;28;20285;-77
2020/12/18 10:22:18;;;;;;;5.20;4.80;;;;;;;6.79;78.17;101200.22;5050355;28;20650;-77
2020/12/18 10:24:44;;;;;;;5.23;4.83;;;;;;;6.65;78.81;101205.31;5045903;28;20248;-77
2020/12/18 10:27:10;;;;;;;6.00;4.30;;;;;;;6.64;78.97;101195.78;5046735;28;20312;-77
2020/12/18 10:29:36;;;;;;;5.47;4.83;;;;;;;6.65;78.88;101192.31;5051394;28;20729;-77
2020/12/18 10:32:01;;;;;;;5.50;5.00;;;;;;;6.66;78.72;101195.78;5047189;28;20245;-77
2020/12/18 10:34:27;;;;;;;6.10;4.63;;;;;;;6.64;79.29;101202.69;5047906;28;20197;-77
2020/12/18 10:36:55;;;;;;;4.60;4.23;;;;;;;6.70;78.90;101206.22;5050524;28;20235;-76
2020/12/18 10:39:23;;;;;;;6.30;4.40;;;;;;;6.67;79.27;101201.00;5040758;28;20206;-76
2020/12/18 10:41:49;;;;;;;4.83;4.20;;;;;;;6.75;78.91;101206.25;5043385;28;20717;-79
2020/12/18 10:44:15;;;;;;;5.40;4.10;;;;;;;6.86;79.16;101214.16;5041534;28;20578;-77
2020/12/18 10:46:41;;;;;;;4.53;4.17;;;;;;;6.83;78.88;101206.31;5043445;28;20221;-77
2020/12/18 10:49:09;;;;;;;4.00;3.70;;;;;;;6.86;79.75;101199.44;5043333;28;20296;-77
2020/12/18 10:51:38;;;;;;;3.90;3.47;;;;;;;6.87;79.62;101210.69;5042156;28;20205;-77
2020/12/18 10:54:05;;;;;;;4.20;3.47;;;;;;;6.88;77.98;101199.47;5044955;28;20194;-77
2020/12/18 10:56:31;;;;;;;3.93;3.63;;;;;;;6.97;78.12;101202.97;5043047;28;20226;-78
2020/12/18 10:58:57;;;;;;;3.67;3.40;;;;;;;6.99;78.77;101203.00;5049114;28;20196;-77
2020/12/18 11:01:23;;;;;;;4.77;2.97;;;;;;;7.02;79.23;101204.78;5041511;28;20222;-76
2020/12/18 11:03:49;;;;;;;3.30;3.00;;;;;;;7.07;78.72;101209.13;5042140;28;20290;-79
2020/12/18 11:06:15;;;;;;;4.60;3.27;;;;;;;7.15;77.56;101207.47;5038507;28;20237;-77
2020/12/18 11:08:41;;;;;;;5.33;3.30;;;;;;;7.13;77.64;101203.97;5041051;28;20207;-78
2020/12/18 11:11:13;;;;;;;3.60;3.30;;;;;;;7.14;77.93;101202.25;5044425;28;20691;-76
2020/12/18 11:13:39;;;;;;;5.40;3.30;;;;;;;7.25;78.32;101204.94;5034996;28;20203;-77
2020/12/18 11:16:05;;;;;;;4.07;3.63;;;;;;;7.21;78.08;101210.97;5037124;28;20234;-77
2020/12/18 11:18:34;;;;;;;4.13;3.67;;;;;;;7.26;77.87;101207.53;5048472;28;20563;-77
2020/12/18 11:21:00;;;;;;;3.77;3.27;;;;;;;7.34;77.88;101202.41;5040609;28;20224;-77
2020/12/18 11:23:25;;;;;;;4.33;3.93;;;;;;;7.39;77.30;101197.22;5041670;28;20198;-77
2020/12/18 11:25:51;;;;;;;4.97;4.23;;;;;;;7.39;77.37;101198.09;5041376;28;20707;-76
2020/12/18 11:28:18;;;;;;;5.03;4.53;;;;;;;7.42;77.37;101200.72;5048264;28;20289;-77
2020/12/18 11:30:44;;;;;;;4.10;3.80;;;;;;;7.50;76.96;101201.63;5042310;28;20786;-77
2020/12/18 11:33:10;;;;;;;5.03;4.53;;;;;;;7.59;76.24;101208.63;5051315;28;20659;-77
2020/12/18 11:35:36;;;;;;;6.97;4.10;;;;;;;7.58;76.82;101208.59;5041145;28;20231;-78
2020/12/18 11:38:01;;;;;;;4.43;4.03;;;;;;;7.65;76.80;101194.78;5050807;28;20207;-78